sensor_id;sensor_type;location;lat;lon;timestamp;pressure;altitude;pressure_sealevel;temperature;humidity
74778;BME280;63298;53.164;8.610;2024-03-07T00:00:33;102977.44;;;4.51;69.69
74778;BME280;63298;53.164;8.610;2024-03-07T00:03:08;102973.72;;;4.42;70.59
74778;BME280;63298;53.164;8.610;2024-03-07T00:06:00;102981.91;;;4.42;70.82
74778;BME280;63298;53.164;8.610;2024-03-07T00:14:36;102978.47;;;4.40;70.41
74778;BME280;63298;53.164;8.610;2024-03-07T00:17:05;102979.47;;;4.39;70.32
74778;BME280;63298;53.164;8.610;2024-03-07T00:19:42;102982.19;;;4.39;70.62
74778;BME280;63298;53.164;8.610;2024-03-07T00:22:07;102986.66;;;4.40;69.91
74778;BME280;63298;53.164;8.610;2024-03-07T00:24:40;102990.38;;;4.39;70.57
74778;BME280;63298;53.164;8.610;2024-03-07T00:27:11;102978.03;;;4.35;69.86
74778;BME280;63298;53.164;8.610;2024-03-07T00:29:37;102976.88;;;4.28;70.90
74778;BME280;63298;53.164;8.610;2024-03-07T00:32:16;102981.91;;;4.23;71.24
74778;BME280;63298;53.164;8.610;2024-03-07T00:35:08;102977.75;;;4.19;71.04
74778;BME280;63298;53.164;8.610;2024-03-07T00:37:40;102990.53;;;4.18;71.07
74778;BME280;63298;53.164;8.610;2024-03-07T00:40:06;102982.91;;;4.22;70.12
74778;BME280;63298;53.164;8.610;2024-03-07T00:42:57;102989.38;;;4.21;70.97
74778;BME280;63298;53.164;8.610;2024-03-07T00:45:24;102981.75;;;4.15;70.86
74778;BME280;63298;53.164;8.610;2024-03-07T00:48:07;102983.34;;;4.08;71.39
74778;BME280;63298;53.164;8.610;2024-03-07T00:50:39;102983.91;;;4.02;70.69
74778;BME280;63298;53.164;8.610;2024-03-07T00:53:05;102974.72;;;4.03;71.07
74778;BME280;63298;53.164;8.610;2024-03-07T00:55:34;102990.97;;;4.04;71.09
74778;BME280;63298;53.164;8.610;2024-03-07T00:58:00;102976.13;;;3.97;70.57
74778;BME280;63298;53.164;8.610;2024-03-07T01:00:26;102984.75;;;3.92;71.61
74778;BME280;63298;53.164;8.610;2024-03-07T01:02:52;102970.09;;;3.84;71.79
74778;BME280;63298;53.164;8.610;2024-03-07T01:05:25;102968.63;;;3.80;71.56
74778;BME280;63298;53.164;8.610;2024-03-07T01:07:51;102982.13;;;3.81;71.66
74778;BME280;63298;53.164;8.610;2024-03-07T01:10:16;102978.13;;;3.85;71.52
74778;BME280;63298;53.164;8.610;2024-03-07T01:12:47;102976.69;;;3.81;71.14
74778;BME280;63298;53.164;8.610;2024-03-07T01:15:13;102978.53;;;3.81;71.00
74778;BME280;63298;53.164;8.610;2024-03-07T01:17:56;102982.44;;;3.78;71.46
74778;BME280;63298;53.164;8.610;2024-03-07T01:20:32;102981.69;;;3.76;71.11
74778;BME280;63298;53.164;8.610;2024-03-07T01:22:58;102971.19;;;3.72;71.48
74778;BME280;63298;53.164;8.610;2024-03-07T01:25:24;102974.78;;;3.63;72.12
74778;BME280;63298;53.164;8.610;2024-03-07T01:27:52;102976.63;;;3.62;71.90
74778;BME280;63298;53.164;8.610;2024-03-07T01:30:18;102977.63;;;3.61;72.35
74778;BME280;63298;53.164;8.610;2024-03-07T01:32:46;102968.56;;;3.61;72.30
74778;BME280;63298;53.164;8.610;2024-03-07T01:35:11;102969.31;;;3.63;71.97
74778;BME280;63298;53.164;8.610;2024-03-07T01:37:40;102969.44;;;3.61;71.88
74778;BME280;63298;53.164;8.610;2024-03-07T01:40:07;102957.22;;;3.56;72.40
74778;BME280;63298;53.164;8.610;2024-03-07T01:42:33;102960.81;;;3.56;72.38
74778;BME280;63298;53.164;8.610;2024-03-07T01:44:59;102968.72;;;3.59;72.07
74778;BME280;63298;53.164;8.610;2024-03-07T01:47:24;102966.13;;;3.58;72.14
74778;BME280;63298;53.164;8.610;2024-03-07T01:49:50;102963.97;;;3.61;72.00
74778;BME280;63298;53.164;8.610;2024-03-07T01:52:15;102952.19;;;3.61;71.69
74778;BME280;63298;53.164;8.610;2024-03-07T01:54:41;102957.41;;;3.64;72.19
74778;BME280;63298;53.164;8.610;2024-03-07T01:57:07;102963.84;;;3.63;71.87
74778;BME280;63298;53.164;8.610;2024-03-07T01:59:33;102959.81;;;3.57;72.96
74778;BME280;63298;53.164;8.610;2024-03-07T02:01:59;102958.94;;;3.57;72.87
74778;BME280;63298;53.164;8.610;2024-03-07T02:04:24;102958.38;;;3.53;72.22
74778;BME280;63298;53.164;8.610;2024-03-07T02:06:50;102964.56;;;3.55;72.48
74778;BME280;63298;53.164;8.610;2024-03-07T02:09:18;102957.09;;;3.57;72.54
74778;BME280;63298;53.164;8.610;2024-03-07T02:11:43;102964.56;;;3.55;72.60
74778;BME280;63298;53.164;8.610;2024-03-07T02:14:09;102963.81;;;3.53;72.41
74778;BME280;63298;53.164;8.610;2024-03-07T02:16:35;102965.38;;;3.46;73.00
74778;BME280;63298;53.164;8.610;2024-03-07T02:19:00;102957.59;;;3.41;73.89
74778;BME280;63298;53.164;8.610;2024-03-07T02:21:26;102952.84;;;3.34;73.77
74778;BME280;63298;53.164;8.610;2024-03-07T02:23:55;102963.88;;;3.32;73.48
74778;BME280;63298;53.164;8.610;2024-03-07T02:26:20;102955.84;;;3.31;73.53
74778;BME280;63298;53.164;8.610;2024-03-07T02:28:46;102955.84;;;3.31;73.93
74778;BME280;63298;53.164;8.610;2024-03-07T02:31:11;102957.00;;;3.28;74.85
74778;BME280;63298;53.164;8.610;2024-03-07T02:33:37;102955.97;;;3.20;74.28
74778;BME280;63298;53.164;8.610;2024-03-07T02:36:02;102949.81;;;2.97;76.67
74778;BME280;63298;53.164;8.610;2024-03-07T02:38:28;102946.50;;;2.93;75.85
74778;BME280;63298;53.164;8.610;2024-03-07T02:40:53;102955.06;;;2.89;75.85
74778;BME280;63298;53.164;8.610;2024-03-07T02:43:21;102947.19;;;2.86;75.36
74778;BME280;63298;53.164;8.610;2024-03-07T02:45:46;102949.63;;;2.89;75.71
74778;BME280;63298;53.164;8.610;2024-03-07T02:48:12;102957.00;;;2.77;76.88
74778;BME280;63298;53.164;8.610;2024-03-07T02:50:37;102957.88;;;2.78;76.51
74778;BME280;63298;53.164;8.610;2024-03-07T02:53:06;102953.81;;;2.72;77.19
74778;BME280;63298;53.164;8.610;2024-03-07T02:55:32;102961.59;;;2.77;76.58
74778;BME280;63298;53.164;8.610;2024-03-07T02:57:58;102959.03;;;2.75;77.21
74778;BME280;63298;53.164;8.610;2024-03-07T03:00:23;102960.47;;;2.79;76.76
74778;BME280;63298;53.164;8.610;2024-03-07T03:02:49;102961.19;;;2.81;77.25
74778;BME280;63298;53.164;8.610;2024-03-07T03:05:23;102949.22;;;2.73;77.51
74778;BME280;63298;53.164;8.610;2024-03-07T03:07:57;102949.84;;;2.76;77.30
74778;BME280;63298;53.164;8.610;2024-03-07T03:10:24;102954.28;;;2.77;77.97
74778;BME280;63298;53.164;8.610;2024-03-07T03:12:54;102948.25;;;2.74;78.44
74778;BME280;63298;53.164;8.610;2024-03-07T03:15:20;102950.56;;;2.78;78.58
74778;BME280;63298;53.164;8.610;2024-03-07T03:17:48;102944.53;;;2.75;79.49
74778;BME280;63298;53.164;8.610;2024-03-07T03:20:14;102939.19;;;2.73;80.12
74778;BME280;63298;53.164;8.610;2024-03-07T03:22:40;102939.66;;;2.78;79.38
74778;BME280;63298;53.164;8.610;2024-03-07T03:25:06;102956.34;;;2.85;79.10
74778;BME280;63298;53.164;8.610;2024-03-07T03:27:31;102941.84;;;2.84;78.69
74778;BME280;63298;53.164;8.610;2024-03-07T03:29:57;102938.59;;;2.90;78.57
74778;BME280;63298;53.164;8.610;2024-03-07T03:32:22;102939.59;;;2.89;78.99
74778;BME280;63298;53.164;8.610;2024-03-07T03:34:47;102937.31;;;2.94;79.58
74778;BME280;63298;53.164;8.610;2024-03-07T03:37:13;102938.44;;;2.92;78.90
74778;BME280;63298;53.164;8.610;2024-03-07T03:39:38;102942.44;;;2.88;82.65
74778;BME280;63298;53.164;8.610;2024-03-07T03:42:06;102943.88;;;2.92;80.26
74778;BME280;63298;53.164;8.610;2024-03-07T03:44:32;102937.91;;;2.98;79.12
74778;BME280;63298;53.164;8.610;2024-03-07T03:46:57;102930.19;;;3.03;79.20
74778;BME280;63298;53.164;8.610;2024-03-07T03:49:22;102942.28;;;3.10;79.57
74778;BME280;63298;53.164;8.610;2024-03-07T03:51:48;102925.94;;;3.10;78.92
74778;BME280;63298;53.164;8.610;2024-03-07T03:54:13;102938.56;;;3.21;78.97
74778;BME280;63298;53.164;8.610;2024-03-07T03:56:38;102936.03;;;3.29;78.82
74778;BME280;63298;53.164;8.610;2024-03-07T03:59:04;102933.88;;;3.32;78.41
74778;BME280;63298;53.164;8.610;2024-03-07T04:01:29;102933.47;;;3.37;78.49
74778;BME280;63298;53.164;8.610;2024-03-07T04:03:55;102938.06;;;3.36;79.30
74778;BME280;63298;53.164;8.610;2024-03-07T04:06:20;102924.72;;;3.33;79.33
74778;BME280;63298;53.164;8.610;2024-03-07T04:08:46;102930.31;;;3.41;78.64
74778;BME280;63298;53.164;8.610;2024-03-07T04:11:11;102939.81;;;3.47;78.91
74778;BME280;63298;53.164;8.610;2024-03-07T04:13:36;102929.78;;;3.47;78.78
74778;BME280;63298;53.164;8.610;2024-03-07T04:16:02;102935.09;;;3.49;78.63
74778;BME280;63298;53.164;8.610;2024-03-07T04:18:27;102938.97;;;3.56;78.33
74778;BME280;63298;53.164;8.610;2024-03-07T04:20:53;102926.50;;;3.54;78.54
74778;BME280;63298;53.164;8.610;2024-03-07T04:23:18;102933.09;;;3.61;77.65
74778;BME280;63298;53.164;8.610;2024-03-07T04:25:46;102932.69;;;3.65;77.84
74778;BME280;63298;53.164;8.610;2024-03-07T04:28:11;102930.25;;;3.62;78.48
74778;BME280;63298;53.164;8.610;2024-03-07T04:30:37;102942.03;;;3.63;80.07
74778;BME280;63298;53.164;8.610;2024-03-07T04:33:02;102938.84;;;3.58;79.46
74778;BME280;63298;53.164;8.610;2024-03-07T04:35:27;102934.25;;;3.58;79.82
74778;BME280;63298;53.164;8.610;2024-03-07T04:37:53;102937.56;;;3.62;78.85
74778;BME280;63298;53.164;8.610;2024-03-07T04:40:18;102936.69;;;3.61;79.22
74778;BME280;63298;53.164;8.610;2024-03-07T04:42:48;102934.13;;;3.60;79.19
74778;BME280;63298;53.164;8.610;2024-03-07T04:45:14;102942.31;;;3.60;80.06
74778;BME280;63298;53.164;8.610;2024-03-07T04:47:40;102949.06;;;3.65;79.55
74778;BME280;63298;53.164;8.610;2024-03-07T04:50:06;102938.44;;;3.62;80.05
74778;BME280;63298;53.164;8.610;2024-03-07T04:52:31;102938.84;;;3.58;80.33
74778;BME280;63298;53.164;8.610;2024-03-07T04:54:57;102945.88;;;3.60;80.06
74778;BME280;63298;53.164;8.610;2024-03-07T04:57:22;102938.44;;;3.62;79.30
74778;BME280;63298;53.164;8.610;2024-03-07T04:59:48;102939.16;;;3.64;79.42
74778;BME280;63298;53.164;8.610;2024-03-07T05:02:13;102936.88;;;3.69;78.67
74778;BME280;63298;53.164;8.610;2024-03-07T05:04:39;102931.69;;;3.66;79.17
74778;BME280;63298;53.164;8.610;2024-03-07T05:10:26;102940.59;;;3.59;81.17
74778;BME280;63298;53.164;8.610;2024-03-07T05:12:52;102942.31;;;3.60;80.72
74778;BME280;63298;53.164;8.610;2024-03-07T05:15:17;102948.22;;;3.65;80.13
74778;BME280;63298;53.164;8.610;2024-03-07T05:17:43;102946.47;;;3.64;80.09
74778;BME280;63298;53.164;8.610;2024-03-07T05:20:09;102943.91;;;3.72;79.70
74778;BME280;63298;53.164;8.610;2024-03-07T05:22:38;102944.78;;;3.72;80.39
74778;BME280;63298;53.164;8.610;2024-03-07T05:25:11;102940.19;;;3.73;79.45
74778;BME280;63298;53.164;8.610;2024-03-07T05:27:40;102951.41;;;3.79;80.39
74778;BME280;63298;53.164;8.610;2024-03-07T05:30:22;102949.22;;;3.73;80.00
74778;BME280;63298;53.164;8.610;2024-03-07T05:32:58;102961.47;;;3.79;80.28
74778;BME280;63298;53.164;8.610;2024-03-07T05:35:45;102956.88;;;3.79;79.92
74778;BME280;63298;53.164;8.610;2024-03-07T05:41:18;102949.38;;;3.81;80.63
74778;BME280;63298;53.164;8.610;2024-03-07T05:43:46;102954.25;;;3.78;80.25
74778;BME280;63298;53.164;8.610;2024-03-07T05:46:12;102959.16;;;3.74;80.65
74778;BME280;63298;53.164;8.610;2024-03-07T05:48:37;102957.41;;;3.73;80.87
74778;BME280;63298;53.164;8.610;2024-03-07T05:51:03;102955.25;;;3.77;80.15
74778;BME280;63298;53.164;8.610;2024-03-07T05:53:28;102956.41;;;3.74;81.13
74778;BME280;63298;53.164;8.610;2024-03-07T05:55:54;102958.28;;;3.74;80.92
74778;BME280;63298;53.164;8.610;2024-03-07T05:58:20;102957.00;;;3.78;80.18
74778;BME280;63298;53.164;8.610;2024-03-07T06:00:46;102960.44;;;3.80;79.94
74778;BME280;63298;53.164;8.610;2024-03-07T06:03:11;102959.44;;;3.81;80.11
74778;BME280;63298;53.164;8.610;2024-03-07T06:05:40;102965.63;;;3.83;80.93
74778;BME280;63298;53.164;8.610;2024-03-07T06:08:11;102953.28;;;3.88;80.11
74778;BME280;63298;53.164;8.610;2024-03-07T06:10:36;102958.00;;;3.86;79.86
74778;BME280;63298;53.164;8.610;2024-03-07T06:13:02;102963.22;;;3.89;80.31
74778;BME280;63298;53.164;8.610;2024-03-07T06:15:27;102953.00;;;3.91;79.88
74778;BME280;63298;53.164;8.610;2024-03-07T06:17:53;102962.91;;;3.92;80.34
74778;BME280;63298;53.164;8.610;2024-03-07T06:20:18;102956.00;;;3.88;80.73
74778;BME280;63298;53.164;8.610;2024-03-07T06:22:43;102954.84;;;3.91;79.91
74778;BME280;63298;53.164;8.610;2024-03-07T06:25:09;102955.16;;;3.98;80.17
74778;BME280;63298;53.164;8.610;2024-03-07T06:27:34;102952.31;;;3.99;80.02
74778;BME280;63298;53.164;8.610;2024-03-07T06:30:00;102947.09;;;4.06;79.60
74778;BME280;63298;53.164;8.610;2024-03-07T06:32:25;102949.28;;;4.02;80.85
74778;BME280;63298;53.164;8.610;2024-03-07T06:34:51;102951.44;;;4.08;79.52
74778;BME280;63298;53.164;8.610;2024-03-07T06:37:16;102944.38;;;4.06;79.70
74778;BME280;63298;53.164;8.610;2024-03-07T06:39:42;102948.53;;;4.10;79.66
74778;BME280;63298;53.164;8.610;2024-03-07T06:42:07;102944.25;;;4.17;79.79
74778;BME280;63298;53.164;8.610;2024-03-07T06:44:33;102946.69;;;4.20;79.73
74778;BME280;63298;53.164;8.610;2024-03-07T06:46:58;102944.81;;;4.20;79.83
74778;BME280;63298;53.164;8.610;2024-03-07T06:49:24;102943.94;;;4.20;79.78
74778;BME280;63298;53.164;8.610;2024-03-07T06:51:49;102946.53;;;4.21;79.80
74778;BME280;63298;53.164;8.610;2024-03-07T06:54:15;102944.69;;;4.22;80.31
74778;BME280;63298;53.164;8.610;2024-03-07T06:56:41;102939.78;;;4.25;80.51
74778;BME280;63298;53.164;8.610;2024-03-07T06:59:06;102943.81;;;4.31;79.85
74778;BME280;63298;53.164;8.610;2024-03-07T07:01:32;102942.94;;;4.30;80.58
74778;BME280;63298;53.164;8.610;2024-03-07T07:03:57;102942.06;;;4.30;80.93
74778;BME280;63298;53.164;8.610;2024-03-07T07:06:23;102950.72;;;4.35;80.62
74778;BME280;63298;53.164;8.610;2024-03-07T07:08:48;102948.69;;;4.37;81.03
74778;BME280;63298;53.164;8.610;2024-03-07T07:11:13;102933.31;;;4.46;80.47
74778;BME280;63298;53.164;8.610;2024-03-07T07:13:39;102942.22;;;4.48;79.96
74778;BME280;63298;53.164;8.610;2024-03-07T07:16:04;102938.75;;;4.46;80.76
74778;BME280;63298;53.164;8.610;2024-03-07T07:18:35;102938.63;;;4.47;80.64
74778;BME280;63298;53.164;8.610;2024-03-07T07:21:00;102950.41;;;4.57;80.31
74778;BME280;63298;53.164;8.610;2024-03-07T07:23:26;102952.84;;;4.60;80.67
74778;BME280;63298;53.164;8.610;2024-03-07T07:26:27;102943.63;;;4.61;80.43
74778;BME280;63298;53.164;8.610;2024-03-07T07:28:52;102933.44;;;4.63;79.93
74778;BME280;63298;53.164;8.610;2024-03-07T07:31:18;102951.41;;;4.66;80.50
74778;BME280;63298;53.164;8.610;2024-03-07T07:33:43;102945.94;;;4.66;80.71
74778;BME280;63298;53.164;8.610;2024-03-07T07:36:09;102941.88;;;4.70;80.42
74778;BME280;63298;53.164;8.610;2024-03-07T07:38:37;102940.16;;;4.69;80.40
74778;BME280;63298;53.164;8.610;2024-03-07T07:41:03;102944.91;;;4.76;80.70
74778;BME280;63298;53.164;8.610;2024-03-07T07:43:28;102946.63;;;4.77;80.55
74778;BME280;63298;53.164;8.610;2024-03-07T07:45:53;102939.88;;;4.82;80.14
74778;BME280;63298;53.164;8.610;2024-03-07T07:48:19;102933.09;;;4.86;80.45
74778;BME280;63298;53.164;8.610;2024-03-07T07:50:44;102931.78;;;4.90;79.69
74778;BME280;63298;53.164;8.610;2024-03-07T07:53:10;102933.91;;;4.96;80.07
74778;BME280;63298;53.164;8.610;2024-03-07T07:55:35;102942.41;;;5.02;79.80
74778;BME280;63298;53.164;8.610;2024-03-07T07:58:01;102940.66;;;5.01;80.51
74778;BME280;63298;53.164;8.610;2024-03-07T08:00:27;102942.81;;;5.07;80.02
74778;BME280;63298;53.164;8.610;2024-03-07T08:02:55;102935.47;;;5.08;79.88
74778;BME280;63298;53.164;8.610;2024-03-07T08:05:22;102930.56;;;5.11;79.48
74778;BME280;63298;53.164;8.610;2024-03-07T08:07:47;102941.91;;;5.16;79.80
74778;BME280;63298;53.164;8.610;2024-03-07T08:10:14;102940.19;;;5.15;79.43
74778;BME280;63298;53.164;8.610;2024-03-07T08:12:42;102930.81;;;5.18;79.05
74778;BME280;63298;53.164;8.610;2024-03-07T08:15:08;102919.56;;;5.21;79.14
74778;BME280;63298;53.164;8.610;2024-03-07T08:17:33;102930.31;;;5.32;79.25
74778;BME280;63298;53.164;8.610;2024-03-07T08:19:59;102925.41;;;5.36;79.43
74778;BME280;63298;53.164;8.610;2024-03-07T08:22:24;102918.16;;;5.44;79.31
74778;BME280;63298;53.164;8.610;2024-03-07T08:24:50;102920.88;;;5.44;79.77
74778;BME280;63298;53.164;8.610;2024-03-07T08:27:15;102922.00;;;5.51;78.99
74778;BME280;63298;53.164;8.610;2024-03-07T08:29:41;102910.75;;;5.54;79.21
74778;BME280;63298;53.164;8.610;2024-03-07T08:32:06;102914.03;;;5.58;79.47
74778;BME280;63298;53.164;8.610;2024-03-07T08:34:32;102913.19;;;5.57;79.33
74778;BME280;63298;53.164;8.610;2024-03-07T08:36:57;102914.75;;;5.60;79.75
74778;BME280;63298;53.164;8.610;2024-03-07T08:39:23;102910.81;;;5.62;79.49
74778;BME280;63298;53.164;8.610;2024-03-07T08:41:50;102918.91;;;5.64;78.82
74778;BME280;63298;53.164;8.610;2024-03-07T08:44:46;102908.50;;;5.68;79.55
74778;BME280;63298;53.164;8.610;2024-03-07T08:47:11;102903.53;;;5.81;78.78
74778;BME280;63298;53.164;8.610;2024-03-07T08:49:37;102912.72;;;5.89;78.66
74778;BME280;63298;53.164;8.610;2024-03-07T08:52:02;102904.03;;;5.94;78.08
74778;BME280;63298;53.164;8.610;2024-03-07T08:54:28;102904.41;;;5.99;78.46
74778;BME280;63298;53.164;8.610;2024-03-07T08:56:53;102902.22;;;6.02;78.08
74778;BME280;63298;53.164;8.610;2024-03-07T08:59:21;102899.78;;;6.17;78.07
74778;BME280;63298;53.164;8.610;2024-03-07T09:01:49;102908.41;;;6.22;78.02
74778;BME280;63298;53.164;8.610;2024-03-07T09:04:14;102898.22;;;6.15;78.28
74778;BME280;63298;53.164;8.610;2024-03-07T09:06:40;102902.13;;;6.12;78.51
74778;BME280;63298;53.164;8.610;2024-03-07T09:09:11;102901.19;;;6.03;77.51
74778;BME280;63298;53.164;8.610;2024-03-07T09:11:37;102913.16;;;5.85;77.67
74778;BME280;63298;53.164;8.610;2024-03-07T09:14:03;102902.19;;;5.85;77.95
74778;BME280;63298;53.164;8.610;2024-03-07T09:16:29;102907.03;;;5.73;78.16
74778;BME280;63298;53.164;8.610;2024-03-07T09:19:02;102921.50;;;5.65;78.02
74778;BME280;63298;53.164;8.610;2024-03-07T09:21:27;102924.28;;;5.56;78.37
74778;BME280;63298;53.164;8.610;2024-03-07T09:23:53;102914.22;;;5.56;78.35
74778;BME280;63298;53.164;8.610;2024-03-07T09:26:18;102904.34;;;5.63;78.86
74778;BME280;63298;53.164;8.610;2024-03-07T09:28:44;102895.06;;;5.74;78.67
74778;BME280;63298;53.164;8.610;2024-03-07T09:31:10;102905.25;;;5.82;77.44
74778;BME280;63298;53.164;8.610;2024-03-07T09:33:36;102897.19;;;5.80;77.15
74778;BME280;63298;53.164;8.610;2024-03-07T09:36:01;102897.94;;;5.73;77.65
74778;BME280;63298;53.164;8.610;2024-03-07T09:38:27;102891.84;;;5.79;77.74
74778;BME280;63298;53.164;8.610;2024-03-07T09:40:53;102902.16;;;5.94;78.08
74778;BME280;63298;53.164;8.610;2024-03-07T09:43:19;102892.06;;;5.95;77.95
74778;BME280;63298;53.164;8.610;2024-03-07T09:45:49;102890.38;;;6.02;77.18
74778;BME280;63298;53.164;8.610;2024-03-07T09:48:17;102897.69;;;6.11;77.13
74778;BME280;63298;53.164;8.610;2024-03-07T09:50:44;102892.44;;;6.18;76.27
74778;BME280;63298;53.164;8.610;2024-03-07T09:53:16;102909.34;;;6.13;76.13
74778;BME280;63298;53.164;8.610;2024-03-07T09:55:43;102899.25;;;6.14;76.44
74778;BME280;63298;53.164;8.610;2024-03-07T15:12:56;102708.16;;;6.49;71.64
74778;BME280;63298;53.164;8.610;2024-03-07T15:15:28;102707.66;;;6.54;71.80
74778;BME280;63298;53.164;8.610;2024-03-07T15:18:21;102704.06;;;6.54;71.72
74778;BME280;63298;53.164;8.610;2024-03-07T15:20:52;102705.44;;;6.58;72.09
74778;BME280;63298;53.164;8.610;2024-03-07T15:23:27;102692.09;;;6.55;71.96
74778;BME280;63298;53.164;8.610;2024-03-07T15:25:55;102696.38;;;6.57;71.72
74778;BME280;63298;53.164;8.610;2024-03-07T15:28:30;102687.47;;;6.55;71.29
74778;BME280;63298;53.164;8.610;2024-03-07T15:30:56;102679.59;;;6.60;71.52
74778;BME280;63298;53.164;8.610;2024-03-07T15:33:36;102685.09;;;6.68;71.40
74778;BME280;63298;53.164;8.610;2024-03-07T15:36:04;102677.03;;;6.67;71.58
74778;BME280;63298;53.164;8.610;2024-03-07T15:38:30;102667.78;;;6.68;71.55
74778;BME280;63298;53.164;8.610;2024-03-07T15:41:05;102669.00;;;6.65;70.82
74778;BME280;63298;53.164;8.610;2024-03-07T15:43:34;102672.25;;;6.69;71.39
74778;BME280;63298;53.164;8.610;2024-03-07T15:45:59;102657.84;;;6.67;70.86
74778;BME280;63298;53.164;8.610;2024-03-07T15:48:28;102664.88;;;6.69;71.45
74778;BME280;63298;53.164;8.610;2024-03-07T15:51:04;102667.13;;;6.74;71.44
74778;BME280;63298;53.164;8.610;2024-03-07T15:53:30;102654.44;;;6.73;71.31
74778;BME280;63298;53.164;8.610;2024-03-07T15:55:58;102654.44;;;6.73;71.19
74778;BME280;63298;53.164;8.610;2024-03-07T15:58:32;102656.00;;;6.75;70.71
74778;BME280;63298;53.164;8.610;2024-03-07T16:01:10;102659.91;;;6.73;70.99
74778;BME280;63298;53.164;8.610;2024-03-07T16:03:38;102645.34;;;6.72;70.63
74778;BME280;63298;53.164;8.610;2024-03-07T16:06:10;102644.16;;;6.75;70.42
74778;BME280;63298;53.164;8.610;2024-03-07T16:08:41;102650.31;;;6.77;70.79
74778;BME280;63298;53.164;8.610;2024-03-07T16:11:18;102649.47;;;6.76;70.80
74778;BME280;63298;53.164;8.610;2024-03-07T16:13:44;102648.97;;;6.81;70.94
74778;BME280;63298;53.164;8.610;2024-03-07T16:23:45;102655.66;;;6.78;69.95
74778;BME280;63298;53.164;8.610;2024-03-07T16:30:27;102638.50;;;6.76;69.08
74778;BME280;63298;53.164;8.610;2024-03-07T16:44:13;102627.16;;;6.71;68.22
74778;BME280;63298;53.164;8.610;2024-03-07T16:47:14;102633.34;;;6.73;69.05
74778;BME280;63298;53.164;8.610;2024-03-07T16:50:28;102633.88;;;6.77;68.33
74778;BME280;63298;53.164;8.610;2024-03-07T17:03:36;102621.66;;;6.55;69.44
74778;BME280;63298;53.164;8.610;2024-03-07T20:53:24;102548.97;;;4.54;72.99
74778;BME280;63298;53.164;8.610;2024-03-07T20:55:50;102556.78;;;4.49;73.20
74778;BME280;63298;53.164;8.610;2024-03-07T20:58:18;102553.91;;;4.51;73.33
74778;BME280;63298;53.164;8.610;2024-03-07T21:00:43;102560.94;;;4.53;72.64
74778;BME280;63298;53.164;8.610;2024-03-07T21:03:12;102564.69;;;4.52;73.41
74778;BME280;63298;53.164;8.610;2024-03-07T21:05:37;102563.69;;;4.53;73.29
74778;BME280;63298;53.164;8.610;2024-03-07T21:08:06;102544.44;;;4.45;73.26
74778;BME280;63298;53.164;8.610;2024-03-07T21:10:31;102561.81;;;4.54;73.08
74778;BME280;63298;53.164;8.610;2024-03-07T21:13:02;102550.00;;;4.53;72.67
74778;BME280;63298;53.164;8.610;2024-03-07T21:15:30;102551.16;;;4.51;73.52
74778;BME280;63298;53.164;8.610;2024-03-07T21:18:18;102544.06;;;4.40;72.97
74778;BME280;63298;53.164;8.610;2024-03-07T21:20:44;102550.16;;;4.52;72.78
74778;BME280;63298;53.164;8.610;2024-03-07T21:23:17;102542.09;;;4.50;72.73
74778;BME280;63298;53.164;8.610;2024-03-07T21:25:43;102547.97;;;4.55;72.92
74778;BME280;63298;53.164;8.610;2024-03-07T21:28:14;102531.78;;;4.44;72.94
74778;BME280;63298;53.164;8.610;2024-03-07T21:30:39;102538.84;;;4.47;72.85
74778;BME280;63298;53.164;8.610;2024-03-07T21:33:08;102535.00;;;4.40;73.72
74778;BME280;63298;53.164;8.610;2024-03-07T21:35:34;102534.53;;;4.44;72.68
74778;BME280;63298;53.164;8.610;2024-03-07T21:38:00;102530.09;;;4.43;73.72
74778;BME280;63298;53.164;8.610;2024-03-07T21:40:25;102545.03;;;4.49;73.52
74778;BME280;63298;53.164;8.610;2024-03-07T21:42:54;102533.53;;;4.45;73.30
74778;BME280;63298;53.164;8.610;2024-03-07T21:45:22;102539.09;;;4.53;73.28
74778;BME280;63298;53.164;8.610;2024-03-07T21:47:59;102531.34;;;4.49;72.85
74778;BME280;63298;53.164;8.610;2024-03-07T21:50:30;102544.22;;;4.56;73.27
74778;BME280;63298;53.164;8.610;2024-03-07T21:53:21;102528.91;;;4.46;72.77
74778;BME280;63298;53.164;8.610;2024-03-07T21:55:52;102534.25;;;4.47;73.26
74778;BME280;63298;53.164;8.610;2024-03-07T21:58:31;102524.63;;;4.43;73.18
74778;BME280;63298;53.164;8.610;2024-03-07T22:00:59;102528.91;;;4.46;72.69
74778;BME280;63298;53.164;8.610;2024-03-07T22:03:46;102524.94;;;4.40;72.67
74778;BME280;63298;53.164;8.610;2024-03-07T22:06:49;102520.09;;;4.34;73.25
74778;BME280;63298;53.164;8.610;2024-03-07T22:09:28;102529.25;;;4.43;73.05
74778;BME280;63298;53.164;8.610;2024-03-07T22:15:18;102523.69;;;4.34;72.39
74778;BME280;63298;53.164;8.610;2024-03-07T22:18:16;102523.00;;;4.32;72.65
74778;BME280;63298;53.164;8.610;2024-03-07T22:24:43;102526.25;;;4.36;72.65
74778;BME280;63298;53.164;8.610;2024-03-07T22:27:58;102524.31;;;4.28;72.32
74778;BME280;63298;53.164;8.610;2024-03-07T22:34:27;102527.91;;;4.29;72.28
74778;BME280;63298;53.164;8.610;2024-03-07T22:48:09;102504.75;;;4.06;72.13
